Time;durP1;ratioP1;P1;durP2;ratioP2;P2;SDS_P1;SDS_P2;PMS_P1;PMS_P2;Temp;Humidity;BMP_temperature;BMP_pressure;BME280_temperature;BME280_humidity;BME280_pressure;Samples;Min_cycle;Max_cycle;Signal;HPM_P1;HPM_P2
2022/10/27 13:24:53;;;;;;;6.03;3.55;;;;;;;13.90;74.74;100329.14;1656264;85;20904;-70
2022/10/27 13:27:52;;;;;;;9.98;5.15;;;;;;;13.91;75.22;100326.47;1643430;84;21018;-70
2022/10/27 13:30:22;;;;;;;7.20;4.45;;;;;;;13.92;75.83;100329.47;1639946;86;21587;-72
2022/10/27 13:32:55;;;;;;;10.18;4.65;;;;;;;13.92;75.83;100329.47;1619557;87;21005;-69
2022/10/27 13:35:34;;;;;;;7.45;2.98;;;;;;;13.92;75.86;100332.55;1622033;87;21093;-70
2022/10/27 13:38:21;;;;;;;5.87;2.30;;;;;;;13.94;74.97;100347.72;1616584;87;21040;-71
2022/10/27 13:40:49;;;;;;;7.08;2.33;;;;;;;13.89;72.34;100342.67;1650676;86;21485;-72
2022/10/27 13:43:25;;;;;;;9.10;5.08;;;;;;;13.87;71.93;100345.80;1623241;86;21113;-72
2022/10/27 13:45:53;;;;;;;4.95;3.55;;;;;;;13.83;71.34;100341.61;1661355;85;21244;-71
2022/10/27 13:48:26;;;;;;;5.42;4.62;;;;;;;13.83;71.34;100341.61;1659203;85;21030;-70
2022/10/27 13:50:57;;;;;;;8.88;6.60;;;;;;;13.82;71.43;100340.36;1654059;86;27290;-69
2022/10/27 13:53:31;;;;;;;9.70;6.28;;;;;;;13.76;71.66;100346.71;1628133;86;21081;-71
2022/10/27 13:56:11;;;;;;;7.70;4.17;;;;;;;13.70;71.78;100337.34;1654267;86;20962;-71
2022/10/27 13:59:02;;;;;;;7.67;4.70;;;;;;;13.65;72.39;100338.44;1663918;85;21419;-71
2022/10/27 14:01:46;;;;;;;20.30;4.25;;;;;;;13.60;72.08;100345.59;1662131;84;21058;-71
2022/10/27 14:04:29;;;;;;;19.23;4.07;;;;;;;13.53;72.07;100345.47;1619375;87;21098;-71
2022/10/27 14:07:00;;;;;;;8.63;3.83;;;;;;;13.47;72.77;100343.09;1666368;84;21648;-69
2022/10/27 14:09:49;;;;;;;4.75;3.70;;;;;;;13.42;73.50;100339.34;1645334;84;20974;-70
2022/10/27 14:12:33;;;;;;;8.85;4.25;;;;;;;13.39;74.22;100339.45;1652098;85;21241;-67
2022/10/27 14:15:08;;;;;;;8.03;4.20;;;;;;;13.34;74.78;100337.05;1648789;85;21533;-70
2022/10/27 14:17:35;;;;;;;4.90;3.08;;;;;;;13.30;74.89;100340.69;1639508;86;21479;-69
2022/10/27 14:20:27;;;;;;;4.28;3.37;;;;;;;13.25;75.18;100341.31;1639990;86;21529;-71
2022/10/27 14:22:57;;;;;;;12.50;6.30;;;;;;;13.22;75.20;100341.87;1627727;86;20990;-70
2022/10/27 17:37:03;;;;;;;5.12;4.28;;;;;;;9.86;100.00;100446.36;1795690;78;26829;-69
2022/10/27 17:39:30;;;;;;;6.85;4.10;;;;;;;9.77;100.00;100447.89;1758389;80;21034;-69
2022/10/27 17:41:58;;;;;;;7.03;4.40;;;;;;;9.74;100.00;100445.80;1758782;80;21777;-69
2022/10/27 17:44:25;;;;;;;6.05;5.03;;;;;;;9.71;100.00;100448.02;1757786;80;21417;-69
2022/10/27 17:46:53;;;;;;;8.65;5.30;;;;;;;9.71;100.00;100445.42;1749974;80;20997;-70
2022/10/27 17:49:19;;;;;;;7.72;5.60;;;;;;;9.72;100.00;100447.58;1757273;80;21438;-70
2022/10/27 17:51:46;;;;;;;8.50;5.10;;;;;;;9.74;100.00;100442.76;1753471;80;20917;-69
2022/10/27 17:54:15;;;;;;;6.60;4.60;;;;;;;9.76;100.00;100442.28;1752757;80;21096;-69
2022/10/27 17:56:41;;;;;;;7.87;5.30;;;;;;;9.80;100.00;100449.53;1764230;80;20998;-69
2022/10/27 17:59:12;;;;;;;8.28;5.47;;;;;;;9.81;100.00;100450.80;1760522;80;20887;-69
2022/10/27 18:01:38;;;;;;;7.55;5.78;;;;;;;9.85;100.00;100459.39;1764416;80;20939;-70
2022/10/27 18:04:07;;;;;;;5.72;4.70;;;;;;;9.88;100.00;100458.88;1768998;80;21411;-69
2022/10/27 18:06:34;;;;;;;6.40;4.67;;;;;;;9.90;100.00;100458.84;1764883;80;21134;-69
2022/10/27 18:09:01;;;;;;;5.30;4.03;;;;;;;9.93;100.00;100460.08;1769956;80;20970;-69
2022/10/27 18:11:30;;;;;;;8.00;4.37;;;;;;;9.93;100.00;100459.64;1780731;80;20994;-69
2022/10/27 18:14:02;;;;;;;10.13;4.45;;;;;;;9.97;100.00;100470.83;1766499;80;20892;-69
2022/10/27 18:16:34;;;;;;;5.67;4.35;;;;;;;9.98;100.00;100469.49;1764659;80;21030;-70
2022/10/27 18:19:06;;;;;;;15.50;4.92;;;;;;;10.01;100.00;100475.03;1777095;80;21150;-70
2022/10/27 18:21:36;;;;;;;6.33;4.90;;;;;;;10.01;100.00;100468.54;1762767;80;20886;-70
2022/10/27 18:24:05;;;;;;;7.00;5.08;;;;;;;10.02;100.00;100468.50;1774686;80;20948;-69
2022/10/27 18:26:36;;;;;;;9.08;5.40;;;;;;;10.02;100.00;100474.14;1771683;79;20955;-69
2022/10/27 18:29:04;;;;;;;7.25;5.50;;;;;;;10.02;100.00;100473.70;1766222;80;21058;-69
2022/10/27 18:31:35;;;;;;;6.62;5.70;;;;;;;10.02;100.00;100479.34;1755000;80;21473;-69
2022/10/27 18:34:06;;;;;;;7.78;5.25;;;;;;;9.99;100.00;100480.74;1749766;80;20989;-69
2022/10/27 18:36:32;;;;;;;8.55;5.40;;;;;;;9.96;100.00;100479.06;1733967;81;21052;-69
2022/10/27 18:39:07;;;;;;;8.68;5.37;;;;;;;9.92;100.00;100480.02;1729381;81;21552;-69
2022/10/27 18:41:34;;;;;;;8.35;5.35;;;;;;;9.87;100.00;100489.66;1739266;81;20970;-70
2022/10/27 18:44:01;;;;;;;7.62;5.70;;;;;;;9.81;100.00;100485.88;1743077;81;21145;-69
2022/10/27 18:46:28;;;;;;;7.08;5.90;;;;;;;9.75;100.00;100486.48;1745200;81;21002;-70
2022/10/27 18:49:03;;;;;;;8.03;5.97;;;;;;;9.67;100.00;100492.69;1738580;81;20983;-69
2022/10/27 18:51:32;;;;;;;10.78;7.72;;;;;;;9.60;100.00;100491.09;1726321;81;21033;-70
2022/10/27 18:54:03;;;;;;;9.73;6.95;;;;;;;9.50;100.00;100492.63;1739221;81;21034;-70
2022/10/27 18:56:29;;;;;;;10.38;6.85;;;;;;;9.43;100.00;100500.12;1733666;81;21148;-70
2022/10/27 18:59:06;;;;;;;9.48;7.35;;;;;;;9.36;100.00;100494.23;1724152;81;21108;-69
2022/10/27 19:01:34;;;;;;;9.90;8.10;;;;;;;9.28;100.00;100496.97;1722130;82;20971;-69
2022/10/27 19:04:05;;;;;;;11.80;9.65;;;;;;;9.24;100.00;100499.64;1743170;82;21009;-70
2022/10/27 19:06:33;;;;;;;15.50;11.03;;;;;;;9.19;100.00;100498.90;1727792;81;21078;-70
2022/10/27 19:09:00;;;;;;;11.55;8.75;;;;;;;9.13;100.00;100500.30;1727995;82;21129;-70
2022/10/27 19:11:29;;;;;;;8.53;7.42;;;;;;;9.06;100.00;100504.75;1739801;81;20926;-69
2022/10/27 19:14:01;;;;;;;9.58;7.20;;;;;;;9.01;100.00;100498.78;1731971;82;21065;-69
2022/10/27 19:16:29;;;;;;;10.53;7.42;;;;;;;8.96;100.00;100491.55;1718278;82;20966;-70
2022/10/27 19:18:58;;;;;;;10.43;7.35;;;;;;;8.89;100.00;100499.88;1724853;81;20972;-70
2022/10/27 19:21:41;;;;;;;8.70;6.95;;;;;;;8.85;100.00;100504.70;1737332;81;21153;-70
2022/10/27 19:24:10;;;;;;;9.48;7.28;;;;;;;8.81;100.00;100508.66;1722052;82;20959;-69
2022/10/27 19:26:36;;;;;;;7.85;5.58;;;;;;;8.76;100.00;100511.80;1733859;82;21446;-70
2022/10/27 19:29:03;;;;;;;8.68;6.42;;;;;;;8.70;100.00;100516.65;1716581;82;21120;-71
2022/10/27 19:31:35;;;;;;;8.60;6.62;;;;;;;8.63;100.00;100515.03;1727324;82;20942;-70
2022/10/27 19:34:00;;;;;;;10.32;6.10;;;;;;;8.57;100.00;100522.49;1745567;81;21129;-70
2022/10/27 19:36:29;;;;;;;9.65;7.22;;;;;;;8.50;100.00;100524.77;1720740;81;20998;-70
2022/10/27 19:38:58;;;;;;;8.55;6.83;;;;;;;8.43;100.00;100524.87;1739096;82;21014;-70
2022/10/27 19:41:28;;;;;;;10.23;6.20;;;;;;;8.36;100.00;100527.16;1724343;81;21493;-70
2022/10/27 19:43:55;;;;;;;9.23;6.40;;;;;;;8.27;100.00;100522.49;1743396;82;21005;-70
2022/10/27 19:46:23;;;;;;;12.90;6.53;;;;;;;8.21;100.00;100523.02;1735833;81;21185;-70
2022/10/27 19:48:52;;;;;;;9.55;7.55;;;;;;;8.16;100.00;100526.14;1743289;81;21622;-70
2022/10/27 19:51:21;;;;;;;8.70;7.17;;;;;;;8.12;100.00;100537.42;1732646;81;21029;-70
2022/10/27 19:53:49;;;;;;;11.20;7.55;;;;;;;8.08;100.00;100542.22;1749708;81;20981;-70
2022/10/27 19:56:16;;;;;;;11.00;8.00;;;;;;;8.02;100.00;100541.86;1737772;82;20946;-70
2022/10/27 19:58:43;;;;;;;10.98;8.28;;;;;;;7.97;100.00;100542.39;1738299;81;21118;-70
2022/10/27 20:01:18;;;;;;;14.65;9.55;;;;;;;7.92;100.00;100539.00;1718225;81;21009;-70
2022/10/27 20:03:46;;;;;;;13.83;9.95;;;;;;;7.89;100.00;100540.33;1751425;81;21002;-70
2022/10/27 20:06:15;;;;;;;15.30;10.38;;;;;;;7.85;100.00;100533.03;1724822;82;20977;-70
2022/10/27 20:08:48;;;;;;;12.80;9.83;;;;;;;7.84;100.00;100538.23;1723782;82;21557;-70
2022/10/27 20:11:25;;;;;;;14.07;9.85;;;;;;;7.86;100.00;100546.84;1733853;82;21161;-70
2022/10/27 20:13:58;;;;;;;13.03;10.75;;;;;;;7.88;100.00;100547.67;1731268;82;20926;-70
2022/10/27 20:16:31;;;;;;;14.83;10.93;;;;;;;7.93;100.00;100541.57;1719579;81;27342;-70
2022/10/27 20:19:05;;;;;;;16.30;11.38;;;;;;;7.99;100.00;100540.64;1725494;82;21485;-69
2022/10/27 20:21:32;;;;;;;12.98;10.13;;;;;;;8.06;100.00;100543.53;1733775;82;21014;-70
2022/10/27 20:24:10;;;;;;;15.63;10.98;;;;;;;8.12;100.00;100550.38;1724011;82;21175;-70
2022/10/27 20:26:33;;;;;;;;;;;;;;;8.19;100.00;100537.76;1745649;81;21143;-69
2022/10/27 20:29:00;;;;;;;16.40;11.43;;;;;;;8.26;100.00;100547.14;1726007;82;20167;-70
2022/10/27 20:31:27;;;;;;;15.20;11.43;;;;;;;8.33;100.00;100542.76;1730525;81;20984;-70
2022/10/27 20:33:54;;;;;;;13.68;11.75;;;;;;;8.39;100.00;100537.05;1727363;82;20959;-69
2022/10/27 20:36:22;;;;;;;13.15;10.23;;;;;;;8.46;100.00;100535.20;1732753;82;21142;-70
2022/10/27 20:38:48;;;;;;;12.85;10.68;;;;;;;8.51;100.00;100538.14;1733616;81;20996;-70
2022/10/27 20:41:18;;;;;;;18.02;12.05;;;;;;;8.58;100.00;100536.31;1720465;81;21072;-70
2022/10/27 20:43:46;;;;;;;16.55;12.18;;;;;;;8.61;100.00;100534.50;1734985;81;20971;-69
2022/10/27 20:46:12;;;;;;;15.50;12.10;;;;;;;8.67;100.00;100536.59;1729431;81;20997;-70
2022/10/27 20:48:39;;;;;;;16.15;11.78;;;;;;;8.70;100.00;100535.24;1727875;81;21442;-70
2022/10/27 20:51:10;;;;;;;12.88;10.38;;;;;;;8.72;100.00;100539.53;1740301;81;21415;-70
2022/10/27 20:53:37;;;;;;;14.07;10.05;;;;;;;8.77;100.00;100542.05;1733000;81;21014;-70
2022/10/27 20:56:05;;;;;;;13.62;10.85;;;;;;;8.82;100.00;100537.17;1744150;81;21010;-70
2022/10/27 20:58:33;;;;;;;16.25;10.90;;;;;;;8.85;100.00;100538.42;1727964;81;21045;-70
2022/10/27 21:01:29;;;;;;;14.63;10.50;;;;;;;8.88;100.00;100533.62;1729056;81;21145;-70
2022/10/27 21:04:02;;;;;;;14.65;10.60;;;;;;;8.91;100.00;100536.17;1726861;81;20959;-70
2022/10/27 21:06:32;;;;;;;12.80;9.05;;;;;;;8.92;100.00;100535.30;1729734;82;21513;-70
2022/10/27 21:09:03;;;;;;;15.10;9.50;;;;;;;8.92;100.00;100534.84;1740904;81;21030;-69
2022/10/27 21:11:31;;;;;;;14.85;10.20;;;;;;;8.93;100.00;100536.56;1733496;81;21065;-70
2022/10/27 21:14:00;;;;;;;13.20;9.40;;;;;;;8.95;100.00;100536.09;1729959;81;21145;-69
2022/10/27 21:16:27;;;;;;;16.42;9.83;;;;;;;8.98;100.00;100524.38;1734342;82;21072;-69
2022/10/27 21:18:56;;;;;;;11.68;9.35;;;;;;;9.03;100.00;100529.89;1741060;81;20926;-69
2022/10/27 21:21:26;;;;;;;12.75;8.85;;;;;;;9.07;100.00;100527.66;1747394;81;21517;-69
2022/10/27 21:23:53;;;;;;;10.13;9.00;;;;;;;9.11;100.00;100533.22;1739150;81;21018;-71
2022/10/27 21:26:29;;;;;;;13.05;9.90;;;;;;;9.13;100.00;100534.05;1742858;81;21106;-70
2022/10/27 21:28:57;;;;;;;18.62;12.65;;;;;;;9.14;100.00;100537.91;1749247;81;21489;-70
2022/10/27 21:31:27;;;;;;;19.35;15.18;;;;;;;9.14;100.00;100539.66;1724302;81;20962;-70
2022/10/27 21:33:54;;;;;;;25.10;17.27;;;;;;;9.16;100.00;100540.48;1718705;81;20958;-70
2022/10/27 21:36:21;;;;;;;18.85;14.35;;;;;;;9.19;100.00;100541.73;1735615;81;20963;-70
2022/10/27 21:38:49;;;;;;;14.93;11.30;;;;;;;9.22;100.00;100536.01;1728549;82;21094;-71
2022/10/27 21:41:18;;;;;;;16.17;12.35;;;;;;;9.29;100.00;100539.36;1732596;82;21002;-71
2022/10/27 21:43:48;;;;;;;11.60;9.78;;;;;;;9.30;100.00;100532.84;1734481;82;20937;-70
2022/10/27 21:46:29;;;;;;;14.60;11.15;;;;;;;9.33;100.00;100534.52;1745150;81;20967;-70
2022/10/27 21:49:02;;;;;;;14.68;11.40;;;;;;;9.36;100.00;100536.21;1739126;81;20954;-70
2022/10/27 21:51:29;;;;;;;14.30;11.15;;;;;;;9.35;100.00;100534.50;1727056;82;21957;-70
2022/10/27 21:54:00;;;;;;;14.58;11.08;;;;;;;9.36;100.00;100531.87;1692643;83;21490;-70
2022/10/27 21:56:27;;;;;;;14.68;10.70;;;;;;;9.37;100.00;100534.88;1701772;83;21011;-70
2022/10/27 21:58:54;;;;;;;16.20;9.90;;;;;;;9.37;100.00;100534.03;1740519;81;21014;-70
2022/10/27 22:01:21;;;;;;;13.22;9.98;;;;;;;9.39;100.00;100540.91;1746904;82;21010;-70
2022/10/27 22:03:48;;;;;;;12.30;8.95;;;;;;;9.42;100.00;100542.12;1725297;81;21143;-70
2022/10/27 22:06:17;;;;;;;11.05;9.28;;;;;;;9.44;100.00;100533.86;1718875;82;21109;-70
2022/10/27 22:08:44;;;;;;;10.23;9.08;;;;;;;9.47;100.00;100538.14;1745350;82;21005;-70
2022/10/27 22:11:16;;;;;;;15.78;10.05;;;;;;;9.48;100.00;100539.85;1744875;81;21065;-70
2022/10/27 22:13:44;;;;;;;18.12;11.50;;;;;;;9.47;100.00;100538.14;1739734;82;20947;-70
2022/10/27 22:16:16;;;;;;;20.82;11.05;;;;;;;9.45;100.00;100538.16;1749393;82;21528;-70
2022/10/27 22:18:43;;;;;;;21.73;11.68;;;;;;;9.42;100.00;100545.16;1727994;82;21046;-70
2022/10/27 22:21:14;;;;;;;24.72;11.83;;;;;;;9.36;100.00;100546.59;1716104;82;21481;-70
2022/10/27 22:23:41;;;;;;;21.55;12.50;;;;;;;9.27;100.00;100548.91;1733201;81;20993;-70
2022/10/27 22:26:14;;;;;;;24.98;12.40;;;;;;;9.17;100.00;100546.95;1735713;82;21002;-69
2022/10/27 22:28:42;;;;;;;24.25;12.75;;;;;;;9.07;100.00;100554.47;1722886;82;21248;-69
2022/10/27 22:31:13;;;;;;;18.80;11.75;;;;;;;8.94;100.00;100551.25;1740010;81;21036;-70
2022/10/27 22:33:39;;;;;;;20.92;10.98;;;;;;;8.81;100.00;100552.32;1707651;83;21062;-70
2022/10/27 22:36:08;;;;;;;28.32;12.85;;;;;;;8.71;100.00;100559.00;1670788;84;20991;-69
2022/10/27 22:38:35;;;;;;;22.60;12.37;;;;;;;8.59;100.00;100560.07;1714282;81;21072;-70
2022/10/27 22:41:11;;;;;;;24.47;12.45;;;;;;;8.49;100.00;100563.67;1749138;81;21147;-70
2022/10/27 22:43:37;;;;;;;22.27;11.90;;;;;;;8.41;100.00;100563.78;1737212;81;20939;-69
2022/10/27 22:46:04;;;;;;;23.22;12.40;;;;;;;8.35;100.00;100565.63;1720691;82;21505;-69
2022/10/27 22:48:32;;;;;;;23.45;13.10;;;;;;;8.27;100.00;100560.08;1724094;82;21010;-69
2022/10/27 22:51:17;;;;;;;19.92;11.00;;;;;;;8.22;100.00;100567.49;1730251;81;21058;-69
2022/10/27 22:53:45;;;;;;;24.25;12.13;;;;;;;8.14;100.00;100555.95;1720690;82;21102;-70
2022/10/27 22:56:17;;;;;;;23.50;12.82;;;;;;;8.10;100.00;100568.53;1733538;81;21097;-70
2022/10/27 22:58:50;;;;;;;18.57;11.05;;;;;;;8.06;100.00;100560.38;1728897;81;21437;-69
2022/10/27 23:01:24;;;;;;;19.23;10.23;;;;;;;8.02;100.00;100561.29;1735171;81;21415;-70
2022/10/27 23:03:52;;;;;;;22.55;12.37;;;;;;;7.99;100.00;100566.55;1723682;81;21068;-69
2022/10/27 23:06:29;;;;;;;22.00;11.97;;;;;;;7.98;100.00;100566.13;1734097;81;21805;-70
2022/10/27 23:08:57;;;;;;;23.38;14.30;;;;;;;7.98;100.00;100564.83;1747369;82;20950;-70
2022/10/27 23:14:06;;;;;;;36.45;14.85;;;;;;;8.01;100.00;100571.23;1729360;82;21003;-70
2022/10/27 23:16:33;;;;;;;27.60;13.50;;;;;;;8.04;100.00;100572.94;1730285;82;21609;-70
2022/10/27 23:19:00;;;;;;;36.63;15.18;;;;;;;8.05;100.00;100571.63;1734291;81;21489;-70
2022/10/27 23:21:27;;;;;;;34.70;13.28;;;;;;;8.07;100.00;100569.87;1725709;81;21438;-70
2022/10/27 23:23:55;;;;;;;29.65;13.25;;;;;;;8.07;100.00;100571.16;1713469;83;20966;-70
2022/10/27 23:26:26;;;;;;;28.62;14.25;;;;;;;8.05;100.00;100572.91;1730676;81;21041;-70
2022/10/27 23:28:55;;;;;;;28.20;13.65;;;;;;;7.99;100.00;100570.87;1729468;82;21046;-70
2022/10/27 23:31:21;;;;;;;28.57;13.78;;;;;;;7.93;100.00;100567.91;1740195;81;21092;-70
2022/10/27 23:34:00;;;;;;;27.98;12.28;;;;;;;7.87;100.00;100569.27;1730200;81;21088;-69
2022/10/27 23:36:28;;;;;;;15.80;10.05;;;;;;;7.80;100.00;100572.37;1735062;81;21488;-69
2022/10/27 23:38:56;;;;;;;18.30;10.35;;;;;;;7.74;100.00;100573.77;1738456;81;20947;-69
2022/10/27 23:41:22;;;;;;;16.97;9.40;;;;;;;7.69;100.00;100573.39;1739257;81;21003;-70
2022/10/27 23:43:51;;;;;;;14.10;8.83;;;;;;;7.62;100.00;100577.78;1729734;82;21148;-69
2022/10/27 23:46:18;;;;;;;11.85;9.03;;;;;;;7.56;100.00;100573.98;1729496;81;20950;-69
2022/10/27 23:48:45;;;;;;;18.12;9.45;;;;;;;7.49;100.00;100573.19;1725913;81;21125;-69
2022/10/27 23:51:12;;;;;;;12.10;9.23;;;;;;;7.44;100.00;100571.08;1731090;81;21009;-69
2022/10/27 23:53:49;;;;;;;11.63;8.20;;;;;;;7.40;100.00;100571.98;1734984;81;21006;-69
2022/10/27 23:56:16;;;;;;;12.45;8.50;;;;;;;7.36;100.00;100563.86;1735363;81;21172;-70
2022/10/27 23:58:43;;;;;;;11.93;7.95;;;;;;;7.34;100.00;100565.61;1727495;81;21072;-70
